Time;durP1;ratioP1;P1;durP2;ratioP2;P2;SDS_P1;SDS_P2;PMS_P1;PMS_P2;Temp;Humidity;BMP_temperature;BMP_pressure;BME280_temperature;BME280_humidity;BME280_pressure;Samples;Min_cycle;Max_cycle;Signal;HPM_P1;HPM_P2
2022/12/25 00:01:48;;;;;;;3.17;1.90;;;;;;;17.30;49.75;101227.78;5036499;28;20572;-63
2022/12/25 00:04:14;;;;;;;7.43;2.55;;;;;;;17.30;50.72;101225.06;5036251;28;20066;-63
2022/12/25 00:06:40;;;;;;;3.72;2.20;;;;;;;17.27;50.23;101225.41;5053004;28;20119;-63
2022/12/25 00:09:05;;;;;;;5.43;2.05;;;;;;;17.27;50.41;101228.09;5052884;28;20029;-63
2022/12/25 00:11:30;;;;;;;8.65;1.73;;;;;;;17.25;50.11;101219.31;5071300;28;20111;-63
2022/12/25 00:13:56;;;;;;;7.93;2.30;;;;;;;17.29;49.71;101228.78;5059643;28;20040;-63
2022/12/25 00:16:23;;;;;;;5.63;2.25;;;;;;;17.30;50.60;101227.78;5052903;28;20455;-63
2022/12/25 00:18:50;;;;;;;4.53;2.35;;;;;;;17.31;50.84;101232.16;5052833;28;20123;-63
2022/12/25 00:21:15;;;;;;;6.40;2.10;;;;;;;17.35;50.93;101233.56;5035817;28;20032;-63
2022/12/25 00:23:41;;;;;;;7.15;2.90;;;;;;;17.37;50.84;101242.34;5052691;28;20174;-64
2022/12/25 00:26:09;;;;;;;7.72;2.22;;;;;;;17.38;50.32;101238.66;5036538;28;20028;-63
2022/12/25 00:28:34;;;;;;;11.85;2.38;;;;;;;17.44;50.49;101235.28;5034631;28;20060;-63
2022/12/25 00:31:06;;;;;;;4.75;2.13;;;;;;;17.46;50.66;101230.53;5052644;28;20484;-65
2022/12/25 00:33:34;;;;;;;6.60;2.55;;;;;;;17.47;50.63;101226.84;5035826;28;20032;-64
2022/12/25 00:36:00;;;;;;;5.78;2.10;;;;;;;17.49;50.46;101241.06;5052271;28;20692;-65
2022/12/25 00:38:26;;;;;;;6.50;2.40;;;;;;;17.50;50.20;101231.94;5052971;28;20031;-64
2022/12/25 00:40:52;;;;;;;6.93;2.65;;;;;;;17.50;49.91;101225.66;5034861;28;20113;-65
2022/12/25 00:43:18;;;;;;;4.97;2.42;;;;;;;17.53;50.40;101226.19;5035830;28;20171;-64
2022/12/25 00:45:43;;;;;;;8.40;2.17;;;;;;;17.54;49.63;101222.47;5070759;28;20059;-64
2022/12/25 00:48:08;;;;;;;10.20;2.45;;;;;;;17.54;50.14;101227.91;5070977;28;20095;-64
2022/12/25 00:50:37;;;;;;;7.05;2.97;;;;;;;17.56;49.43;101236.69;5036345;28;20120;-64
2022/12/25 00:53:02;;;;;;;10.82;2.90;;;;;;;17.56;49.80;101236.69;5052367;28;20612;-64
2022/12/25 00:55:30;;;;;;;6.85;2.90;;;;;;;17.56;49.94;101228.56;5035833;28;20068;-64
2022/12/25 00:57:55;;;;;;;9.10;2.20;;;;;;;17.57;49.83;101238.41;5036035;28;20404;-64
2022/12/25 01:00:20;;;;;;;6.97;2.95;;;;;;;17.58;50.11;101233.84;5052167;28;20040;-65
2022/12/25 01:02:46;;;;;;;4.40;2.55;;;;;;;17.53;50.18;101226.19;5052276;28;20458;-64
2022/12/25 01:05:11;;;;;;;5.93;2.63;;;;;;;17.55;50.05;101229.59;5070679;28;20029;-64
2022/12/25 01:07:36;;;;;;;6.90;2.58;;;;;;;17.55;49.45;101231.47;5052166;28;20036;-64
2022/12/25 01:12:46;;;;;;;9.57;3.10;;;;;;;17.50;50.55;101225.66;5059024;28;20055;-64
2022/12/25 01:15:12;;;;;;;7.53;2.60;;;;;;;17.51;50.04;101228.19;5038781;28;20037;-64
2022/12/25 01:17:38;;;;;;;7.03;3.00;;;;;;;17.50;50.08;101231.94;5055969;28;20020;-65
2022/12/25 01:20:04;;;;;;;11.07;3.50;;;;;;;17.52;49.87;101229.03;5056409;28;20039;-64
2022/12/25 01:22:29;;;;;;;6.20;2.65;;;;;;;17.53;50.83;101234.31;5039290;28;20036;-64
2022/12/25 01:24:54;;;;;;;6.55;2.80;;;;;;;17.55;50.36;101229.59;5055818;28;20044;-65
2022/12/25 01:27:20;;;;;;;7.90;3.30;;;;;;;17.55;50.13;101221.47;5038962;28;20086;-65
2022/12/25 01:29:45;;;;;;;14.68;3.28;;;;;;;17.52;50.26;101213.66;5038726;28;20486;-64
2022/12/25 01:32:11;;;;;;;8.70;3.65;;;;;;;17.58;50.36;101218.44;5056347;28;20075;-65
2022/12/25 01:34:36;;;;;;;6.95;3.03;;;;;;;17.58;50.24;101218.44;5030295;28;20029;-64
2022/12/25 01:37:02;;;;;;;11.40;2.78;;;;;;;17.57;49.76;101219.44;5058212;28;20041;-65
2022/12/25 01:39:28;;;;;;;7.20;3.47;;;;;;;17.60;50.09;101221.81;5056362;28;20580;-65
2022/12/25 01:41:54;;;;;;;5.70;2.88;;;;;;;17.60;50.25;101221.81;5038776;28;20044;-64
2022/12/25 01:44:34;;;;;;;7.65;3.28;;;;;;;17.60;49.55;101221.81;5039144;28;20032;-64
2022/12/25 01:47:00;;;;;;;12.25;3.58;;;;;;;17.57;49.37;101221.28;5055255;28;20132;-64
2022/12/25 01:49:26;;;;;;;6.07;3.08;;;;;;;17.55;49.74;101229.59;5055423;28;20580;-64
2022/12/25 01:51:59;;;;;;;6.40;3.10;;;;;;;17.55;50.52;101239.59;5038599;28;20032;-64
2022/12/25 01:54:27;;;;;;;9.52;3.78;;;;;;;17.55;50.88;101251.28;5055476;28;20394;-65
2022/12/25 01:56:54;;;;;;;8.10;2.80;;;;;;;17.54;50.39;101236.03;5055095;28;20484;-65
2022/12/25 01:59:21;;;;;;;9.15;3.20;;;;;;;17.55;50.58;101235.03;5056541;28;20028;-65
2022/12/25 02:01:46;;;;;;;7.93;3.20;;;;;;;17.56;50.26;101242.13;5054464;28;20025;-64
2022/12/25 02:04:20;;;;;;;7.53;2.90;;;;;;;17.54;49.95;101238.72;5055208;28;20051;-64
2022/12/25 02:06:46;;;;;;;5.88;2.85;;;;;;;17.50;50.50;101237.34;5073180;28;20538;-64
2022/12/25 02:09:13;;;;;;;7.30;2.83;;;;;;;17.48;50.62;101240.19;5041373;28;20404;-65
2022/12/25 02:11:57;;;;;;;4.47;2.63;;;;;;;17.46;50.63;101238.66;5051219;28;20033;-64
2022/12/25 02:14:23;;;;;;;12.18;2.45;;;;;;;17.44;49.34;101246.13;5059725;28;20066;-64
2022/12/25 02:16:57;;;;;;;6.68;2.08;;;;;;;17.40;50.66;101242.03;5057896;28;20374;-64
2022/12/25 02:19:41;;;;;;;5.07;1.88;;;;;;;17.40;50.76;101252.88;5057433;28;20036;-64
2022/12/25 02:22:25;;;;;;;5.55;2.47;;;;;;;17.38;50.43;101253.03;5056805;28;20473;-64
2022/12/25 02:24:54;;;;;;;3.97;1.63;;;;;;;17.39;50.77;101257.44;5057388;28;20029;-64
2022/12/25 02:27:28;;;;;;;4.63;1.90;;;;;;;17.43;50.03;101263.38;5057470;28;20033;-64
2022/12/25 02:30:08;;;;;;;4.93;1.92;;;;;;;17.44;50.83;101256.97;5075141;28;20024;-64
2022/12/25 02:34:01;;;;;;;4.07;1.95;;;;;;;17.45;51.02;101261.34;5057820;28;20048;-64
2022/12/25 02:35:42;;;;;;;4.65;2.03;;;;;;;17.45;50.45;101262.19;5060001;28;20051;-64
2022/12/25 02:38:16;;;;;;;6.10;1.60;;;;;;;17.43;50.19;101257.97;5040850;28;20024;-65
2022/12/25 02:40:47;;;;;;;5.60;1.60;;;;;;;17.42;50.24;101257.09;5057044;28;20381;-64
2022/12/25 03:08:31;;;;;;;3.88;1.42;;;;;;;17.38;50.19;101241.34;5039988;28;20499;-64
2022/12/25 03:13:49;;;;;;;3.42;1.85;;;;;;;17.37;50.93;101224.25;5039467;28;20056;-64
2022/12/25 03:18:58;;;;;;;4.55;1.83;;;;;;;17.35;50.51;101217.31;5039721;28;20086;-64
2022/12/25 03:26:55;;;;;;;2.78;1.60;;;;;;;17.32;50.91;101195.97;5054356;28;20083;-64
2022/12/25 03:32:16;;;;;;;7.57;2.42;;;;;;;17.29;50.20;101180.03;5053614;28;20499;-64
2022/12/25 04:37:16;;;;;;;2.58;0.60;;;;;;;17.16;50.00;101158.00;5037842;28;20040;-63
2022/12/25 04:39:41;;;;;;;4.47;0.57;;;;;;;17.13;50.54;101144.78;5018566;28;20041;-63
2022/12/25 04:42:07;;;;;;;2.10;0.93;;;;;;;17.12;50.60;101152.06;5025121;28;20036;-62
2022/12/25 04:44:33;;;;;;;3.33;0.70;;;;;;;17.10;49.92;101148.69;5038243;28;20062;-62
2022/12/25 04:46:58;;;;;;;3.83;0.68;;;;;;;17.09;50.67;101143.41;5054945;28;20067;-63
2022/12/25 04:49:24;;;;;;;3.40;0.80;;;;;;;17.09;49.62;101135.28;5054697;28;20433;-62
2022/12/25 04:51:49;;;;;;;0.80;0.55;;;;;;;17.11;49.69;101133.28;5054888;28;20471;-63
2022/12/25 04:54:14;;;;;;;3.58;0.60;;;;;;;17.12;50.07;101129.56;5054887;28;20039;-63
2022/12/25 04:56:40;;;;;;;0.75;0.30;;;;;;;17.15;50.39;101134.63;5054933;28;20538;-63
2022/12/25 04:59:05;;;;;;;2.67;1.50;;;;;;;17.17;50.64;101132.63;5055099;28;20472;-63
2022/12/25 05:01:31;;;;;;;1.75;0.73;;;;;;;17.17;50.54;101132.63;5071909;28;20116;-63
2022/12/25 05:03:56;;;;;;;1.55;0.50;;;;;;;17.16;49.06;101133.63;5054698;28;20107;-63
2022/12/25 05:06:21;;;;;;;2.05;0.52;;;;;;;17.15;50.35;101118.41;5054974;28;20492;-63
2022/12/25 05:08:47;;;;;;;5.25;0.80;;;;;;;17.16;49.86;101114.69;5038134;28;20139;-63
2022/12/25 05:11:14;;;;;;;1.65;0.50;;;;;;;17.15;49.71;101123.81;5038662;28;20036;-63
2022/12/25 05:13:39;;;;;;;2.83;0.95;;;;;;;17.13;49.32;101115.88;5072587;28;20028;-63
2022/12/25 05:16:13;;;;;;;3.88;1.05;;;;;;;17.15;49.48;101116.53;5034607;28;20095;-62
2022/12/25 05:18:38;;;;;;;1.88;0.60;;;;;;;17.16;49.57;101114.69;5051406;28;20037;-63
2022/12/25 05:21:04;;;;;;;1.13;0.60;;;;;;;17.15;49.90;101119.25;5018026;28;20031;-63
2022/12/25 05:23:29;;;;;;;2.17;0.93;;;;;;;17.17;49.32;101109.09;5018534;28;20033;-63
2022/12/25 05:25:55;;;;;;;0.77;0.77;;;;;;;17.18;49.57;101109.94;5034542;28;20455;-63
2022/12/25 05:28:20;;;;;;;3.17;0.65;;;;;;;17.19;48.91;101120.63;5018045;28;20029;-63
2022/12/25 05:30:46;;;;;;;2.85;0.80;;;;;;;17.20;49.30;101122.31;5001797;28;20140;-63
2022/12/25 05:33:14;;;;;;;2.20;0.90;;;;;;;17.21;49.80;101123.16;5034464;28;20022;-63
2022/12/25 05:35:39;;;;;;;4.10;0.60;;;;;;;17.19;50.10;101120.63;5034558;28;20103;-62
2022/12/25 05:38:06;;;;;;;2.70;0.75;;;;;;;17.18;49.07;101112.66;5018640;28;20494;-62
2022/12/25 05:40:33;;;;;;;2.97;0.40;;;;;;;17.16;50.27;101109.28;5034924;28;20033;-63
2022/12/25 05:43:00;;;;;;;4.00;0.57;;;;;;;17.16;49.33;101117.41;5034568;28;20137;-63
2022/12/25 05:45:25;;;;;;;3.53;0.43;;;;;;;17.14;49.71;101124.84;5018312;28;20029;-63
2022/12/25 05:47:51;;;;;;;1.30;0.80;;;;;;;17.14;49.40;101114.84;5034514;28;20028;-62
2022/12/25 05:50:17;;;;;;;3.75;0.40;;;;;;;17.16;50.03;101114.69;5041923;28;20025;-63
2022/12/25 05:52:42;;;;;;;0.52;0.50;;;;;;;17.14;49.57;101095.88;5054390;28;20029;-62
2022/12/25 05:55:07;;;;;;;1.15;0.70;;;;;;;17.13;50.09;101105.03;5056377;28;20083;-63
2022/12/25 05:57:33;;;;;;;2.08;0.52;;;;;;;17.11;50.59;101101.66;5058229;28;20036;-63
2022/12/25 05:59:58;;;;;;;3.22;0.40;;;;;;;17.07;49.86;101089.44;5041312;28;20103;-63
2022/12/25 06:02:24;;;;;;;1.95;0.88;;;;;;;17.10;50.08;101093.69;5058308;28;20400;-63
2022/12/25 06:04:50;;;;;;;1.95;0.47;;;;;;;17.07;50.39;101086.75;5057909;28;20389;-63
2022/12/25 06:07:15;;;;;;;3.67;0.45;;;;;;;17.05;50.01;101085.22;5041151;28;20381;-62
2022/12/25 06:09:40;;;;;;;1.20;0.60;;;;;;;17.00;49.94;101087.56;5057855;28;20500;-63
2022/12/25 06:12:06;;;;;;;0.65;0.50;;;;;;;17.00;50.37;101074.03;5041148;28;20028;-63
2022/12/25 06:14:32;;;;;;;1.75;0.40;;;;;;;16.94;49.46;101056.59;5076013;28;20028;-62
2022/12/25 06:16:57;;;;;;;1.05;0.60;;;;;;;16.92;49.77;101063.19;5057815;28;20082;-63
2022/12/25 06:19:22;;;;;;;2.05;1.15;;;;;;;16.87;49.93;101060.97;5075746;28;20029;-62
2022/12/25 06:21:52;;;;;;;0.70;0.68;;;;;;;16.80;49.83;101047.25;5057744;28;20412;-62
2022/12/25 06:24:17;;;;;;;3.05;0.63;;;;;;;16.80;50.20;101051.81;5057484;28;20082;-62
2022/12/25 06:26:44;;;;;;;2.05;1.02;;;;;;;16.75;49.67;101051.47;5040678;28;20028;-63
2022/12/25 06:29:10;;;;;;;3.63;0.70;;;;;;;16.69;49.40;101052.13;5041253;28;20025;-63
2022/12/25 06:31:38;;;;;;;2.88;0.73;;;;;;;16.68;49.68;101067.50;5075086;28;20025;-63
2022/12/25 06:34:04;;;;;;;6.00;0.82;;;;;;;16.66;48.68;101077.63;5040628;28;20143;-63
2022/12/25 06:36:29;;;;;;;4.50;0.80;;;;;;;16.63;49.50;101074.41;5040643;28;20036;-63
2022/12/25 06:38:55;;;;;;;5.68;0.90;;;;;;;16.62;49.33;101064.59;5040681;28;20476;-63
2022/12/25 06:41:25;;;;;;;3.70;0.80;;;;;;;16.60;50.58;101053.94;5057881;28;20035;-63
2022/12/25 06:43:53;;;;;;;2.63;0.60;;;;;;;16.60;49.65;101043.13;5037502;28;20048;-63
2022/12/25 06:46:19;;;;;;;3.72;0.40;;;;;;;16.60;50.49;101026.03;5074930;28;20043;-63
2022/12/25 06:48:48;;;;;;;0.95;0.55;;;;;;;16.57;49.24;100994.75;5057058;28;20037;-63
2022/12/25 06:51:14;;;;;;;3.47;0.73;;;;;;;16.56;49.28;100986.78;5057790;28;20024;-63
2022/12/25 06:53:40;;;;;;;1.58;1.05;;;;;;;16.53;49.92;100977.16;5057180;28;20078;-63
2022/12/25 06:56:06;;;;;;;0.90;0.45;;;;;;;16.54;49.92;100992.38;5024745;28;20103;-64
2022/12/25 06:58:32;;;;;;;2.05;0.45;;;;;;;16.55;49.82;100995.94;5037349;28;20041;-63
2022/12/25 07:00:57;;;;;;;5.32;0.63;;;;;;;16.53;49.38;100997.91;5036475;28;20378;-63
2022/12/25 07:03:24;;;;;;;4.00;0.70;;;;;;;16.52;49.19;101001.66;5037351;28;20040;-63
2022/12/25 07:05:50;;;;;;;1.38;0.63;;;;;;;16.53;50.61;101009.59;5036555;28;20056;-62
2022/12/25 07:08:15;;;;;;;2.58;0.70;;;;;;;16.51;50.39;101002.63;5036845;28;20110;-63
2022/12/25 07:10:40;;;;;;;2.58;0.90;;;;;;;16.50;50.52;100995.56;5036631;28;20046;-63
2022/12/25 07:13:06;;;;;;;1.75;0.52;;;;;;;16.49;49.11;100994.69;5054643;28;20052;-63
2022/12/25 07:15:31;;;;;;;0.93;0.50;;;;;;;16.47;50.14;100972.38;5020010;28;20114;-63
2022/12/25 07:17:57;;;;;;;1.08;0.52;;;;;;;16.47;50.10;100971.53;5036503;28;20485;-63
2022/12/25 07:20:22;;;;;;;1.45;0.60;;;;;;;16.45;50.06;100979.81;5020452;28;20037;-63
2022/12/25 07:22:47;;;;;;;1.60;0.63;;;;;;;16.45;49.51;100985.22;5053061;28;20516;-63
2022/12/25 07:25:13;;;;;;;1.67;0.70;;;;;;;16.47;49.63;100980.47;5056367;28;20037;-64
2022/12/25 07:27:40;;;;;;;1.52;1.38;;;;;;;16.45;50.00;100974.41;5039703;28;20451;-63
2022/12/25 07:30:07;;;;;;;2.05;0.88;;;;;;;16.47;50.17;100960.72;5039506;28;20028;-63
2022/12/25 07:32:33;;;;;;;2.20;0.60;;;;;;;16.46;49.59;100954.47;5056514;28;20021;-63
2022/12/25 07:34:58;;;;;;;1.83;0.75;;;;;;;16.45;50.69;100954.63;5039548;28;20059;-63
2022/12/25 07:37:24;;;;;;;3.05;0.82;;;;;;;16.44;50.81;100955.66;5039551;28;20041;-63
2022/12/25 07:39:49;;;;;;;5.45;0.70;;;;;;;16.41;50.29;100954.13;5055944;28;20427;-63
2022/12/25 07:42:15;;;;;;;5.75;1.08;;;;;;;16.44;50.75;100952.94;5039029;28;20098;-64
2022/12/25 07:44:40;;;;;;;3.10;1.30;;;;;;;16.46;50.42;100970.69;5035800;28;20044;-63
2022/12/25 07:47:05;;;;;;;2.60;0.70;;;;;;;16.46;49.88;100975.25;5036776;28;20028;-63
2022/12/25 07:49:31;;;;;;;5.10;0.60;;;;;;;16.47;50.15;100985.88;5035923;28;20112;-63
2022/12/25 07:51:56;;;;;;;1.20;0.80;;;;;;;16.47;50.67;100972.38;5035937;28;20033;-63
2022/12/25 07:54:21;;;;;;;5.43;1.10;;;;;;;16.47;50.60;100968.84;5019406;28;20033;-63
2022/12/25 07:56:53;;;;;;;1.00;0.70;;;;;;;16.47;49.50;100950.72;5019343;28;20111;-64
2022/12/25 07:59:19;;;;;;;2.33;1.55;;;;;;;16.45;50.60;100950.06;5036167;28;20036;-63
2022/12/25 08:01:44;;;;;;;3.33;0.93;;;;;;;16.43;49.53;100943.97;5035795;28;20037;-63
2022/12/25 08:04:11;;;;;;;4.15;0.70;;;;;;;16.47;50.25;100950.72;5035993;28;20409;-63
2022/12/25 08:06:37;;;;;;;0.95;0.70;;;;;;;16.49;50.70;100942.47;5069383;28;20032;-63
2022/12/25 08:09:09;;;;;;;6.75;1.23;;;;;;;16.51;50.41;100924.22;5055551;28;20577;-63
2022/12/25 08:11:34;;;;;;;4.05;1.73;;;;;;;16.54;49.60;100940.16;5039227;28;20023;-63
2022/12/25 08:13:59;;;;;;;0.98;0.75;;;;;;;16.56;50.05;100965.16;5022334;28;20423;-63
2022/12/25 08:16:25;;;;;;;1.95;0.73;;;;;;;16.62;50.41;101003.22;5055275;28;20112;-63
2022/12/25 08:18:50;;;;;;;1.90;0.70;;;;;;;16.65;50.18;101013.72;5054693;28;20033;-63
2022/12/25 08:21:16;;;;;;;2.55;0.93;;;;;;;16.69;49.91;101023.22;5054973;28;20044;-63
2022/12/25 08:23:43;;;;;;;1.45;0.65;;;;;;;16.73;49.55;101021.84;5072986;28;20035;-63
2022/12/25 08:26:18;;;;;;;3.55;1.00;;;;;;;16.76;49.78;101009.84;5055619;28;20032;-63
2022/12/25 08:28:44;;;;;;;1.17;0.73;;;;;;;16.77;50.16;101025.94;5038481;28;20037;-63
2022/12/25 08:31:14;;;;;;;2.75;0.73;;;;;;;16.79;50.24;101023.91;5038325;28;20036;-64
2022/12/25 08:33:39;;;;;;;5.88;1.00;;;;;;;16.78;49.16;101014.09;5073154;28;20036;-63
2022/12/25 08:36:06;;;;;;;2.22;1.20;;;;;;;16.78;50.36;101008.69;5054840;28;20025;-63
2022/12/25 08:38:32;;;;;;;5.47;0.93;;;;;;;16.79;49.24;100994.16;5055701;28;20052;-62
2022/12/25 08:40:57;;;;;;;3.45;1.00;;;;;;;16.74;49.38;100985.69;5054914;28;20083;-63
2022/12/25 08:43:23;;;;;;;2.17;0.80;;;;;;;16.73;50.50;100997.50;5036914;28;20060;-63
2022/12/25 08:45:48;;;;;;;2.10;1.10;;;;;;;16.70;50.59;101011.38;5052387;28;20526;-63
2022/12/25 08:48:13;;;;;;;3.75;1.05;;;;;;;16.69;51.03;101028.63;5052128;28;20043;-64
2022/12/25 08:50:44;;;;;;;2.70;1.17;;;;;;;16.69;51.60;101027.78;5052372;28;20074;-63
2022/12/25 08:53:09;;;;;;;3.85;1.00;;;;;;;16.67;51.01;101043.28;5035999;28;20067;-62
2022/12/25 08:55:35;;;;;;;2.88;0.90;;;;;;;16.68;49.92;101062.09;5052154;28;20056;-63
2022/12/25 08:58:00;;;;;;;2.60;1.30;;;;;;;16.66;49.92;101069.53;5035735;28;20512;-62
2022/12/25 09:00:25;;;;;;;2.80;1.25;;;;;;;16.64;51.17;101063.41;5020107;28;20514;-64
2022/12/25 09:02:51;;;;;;;2.67;1.00;;;;;;;16.56;51.53;101073.34;5044890;28;20059;-65
2022/12/25 09:05:17;;;;;;;5.15;1.23;;;;;;;16.48;51.44;101071.41;5038675;28;20480;-65
2022/12/25 09:07:42;;;;;;;2.13;1.30;;;;;;;16.42;50.89;101065.78;5034517;28;20079;-63
2022/12/25 09:10:10;;;;;;;1.77;1.17;;;;;;;16.31;51.73;101048.00;5034723;28;20044;-63
2022/12/25 09:12:35;;;;;;;5.50;1.70;;;;;;;16.23;51.25;101046.13;5052495;28;20033;-65
2022/12/25 09:15:01;;;;;;;5.32;1.30;;;;;;;16.17;51.64;101037.78;5034786;28;20029;-65
2022/12/25 09:17:26;;;;;;;1.77;1.08;;;;;;;16.07;52.15;101028.94;5038152;28;20025;-63
2022/12/25 09:19:51;;;;;;;2.38;1.65;;;;;;;15.99;52.61;101020.81;5054447;28;20040;-63
2022/12/25 09:22:18;;;;;;;1.90;1.10;;;;;;;15.92;51.50;101022.44;5054661;28;20037;-63
2022/12/25 09:24:43;;;;;;;3.25;1.02;;;;;;;15.85;52.95;101029.47;5037785;28;20492;-63
2022/12/25 09:27:09;;;;;;;5.57;1.23;;;;;;;15.80;51.71;101029.13;5054833;28;20040;-63
2022/12/25 09:29:34;;;;;;;1.25;1.02;;;;;;;15.74;52.76;101030.59;5055802;28;20028;-63
2022/12/25 09:32:00;;;;;;;2.25;1.02;;;;;;;15.71;51.84;101026.34;5041872;28;20431;-63
2022/12/25 09:34:26;;;;;;;2.05;1.40;;;;;;;15.68;53.11;101018.56;5058278;28;20132;-63
2022/12/25 09:36:51;;;;;;;3.33;1.20;;;;;;;15.67;51.85;101034.91;5076286;28;20028;-62
2022/12/25 09:39:16;;;;;;;3.97;1.75;;;;;;;15.66;52.36;101022.44;5058377;28;20164;-63
2022/12/25 09:42:05;;;;;;;7.03;2.17;;;;;;;15.67;52.39;101016.88;5058365;28;20396;-65
2022/12/25 09:44:33;;;;;;;2.67;1.15;;;;;;;15.67;52.94;101003.34;5028321;28;20044;-65
2022/12/25 09:47:12;;;;;;;1.23;0.80;;;;;;;15.66;52.01;101020.56;5038495;28;20032;-65
2022/12/25 09:49:38;;;;;;;2.03;1.45;;;;;;;15.66;52.06;101020.56;5038544;28;20036;-64
2022/12/25 09:52:15;;;;;;;3.33;1.40;;;;;;;15.66;52.44;101023.25;5055991;28;20025;-65
2022/12/25 09:54:43;;;;;;;4.55;1.55;;;;;;;15.67;52.42;101030.38;5055979;28;20040;-65
2022/12/25 09:57:13;;;;;;;3.33;1.38;;;;;;;15.69;52.06;101019.38;5055851;28;20052;-65
2022/12/25 09:59:39;;;;;;;3.60;1.55;;;;;;;15.69;51.91;101001.34;5037987;28;20094;-64
2022/12/25 10:02:39;;;;;;;3.72;1.48;;;;;;;15.69;52.49;101004.03;5021560;28;20079;-65
2022/12/25 10:05:40;;;;;;;5.32;1.55;;;;;;;15.67;53.59;100989.84;5024802;28;20533;-66
2022/12/25 10:08:24;;;;;;;3.00;1.33;;;;;;;15.64;52.34;100983.91;5032253;28;20076;-64
2022/12/25 10:10:53;;;;;;;6.32;2.10;;;;;;;15.62;52.52;100992.19;5037777;28;20079;-63
2022/12/25 10:13:55;;;;;;;2.25;1.55;;;;;;;15.59;52.52;100987.09;5021345;28;20408;-63
2022/12/25 10:16:38;;;;;;;5.72;1.92;;;;;;;15.60;52.39;100979.84;5055481;28;20033;-63
2022/12/25 10:19:23;;;;;;;4.70;1.30;;;;;;;15.57;53.37;100978.31;5021127;28;20542;-63
2022/12/25 10:21:51;;;;;;;6.05;1.67;;;;;;;15.62;52.69;100992.19;5037578;28;20398;-63
2022/12/25 10:24:27;;;;;;;3.67;1.35;;;;;;;15.64;53.06;100981.22;5037564;28;20033;-63
2022/12/25 10:26:53;;;;;;;3.13;1.45;;;;;;;15.64;53.49;100973.97;5037721;28;20021;-64
2022/12/25 10:29:19;;;;;;;1.83;1.27;;;;;;;15.66;53.68;100961.13;5037842;28;20029;-63
2022/12/25 10:31:46;;;;;;;5.22;1.60;;;;;;;15.68;54.15;100969.97;5054129;28;20040;-63
2022/12/25 10:34:12;;;;;;;4.82;1.80;;;;;;;15.69;53.50;100965.38;5037396;28;20052;-63
2022/12/25 10:36:38;;;;;;;2.83;1.15;;;;;;;15.71;53.57;100964.25;5020735;28;20436;-64
2022/12/25 10:39:04;;;;;;;3.30;1.40;;;;;;;15.70;52.84;100932.81;5037252;28;20036;-64
2022/12/25 10:41:52;;;;;;;3.50;1.88;;;;;;;15.76;52.92;100928.63;5036737;28;20100;-63
2022/12/25 10:44:19;;;;;;;5.47;1.75;;;;;;;15.77;54.27;100918.69;5055825;28;20086;-64
2022/12/25 10:46:55;;;;;;;3.92;1.83;;;;;;;15.78;53.27;100909.56;5040455;28;20035;-63
2022/12/25 10:49:23;;;;;;;1.38;1.15;;;;;;;15.82;54.43;100905.53;5057358;28;20503;-63
2022/12/25 10:51:49;;;;;;;5.00;1.95;;;;;;;15.84;53.76;100881.91;5056976;28;20111;-63
2022/12/25 10:54:30;;;;;;;8.98;2.67;;;;;;;15.89;53.68;100875.00;5074673;28;20047;-63
2022/12/25 10:56:59;;;;;;;5.47;2.08;;;;;;;15.93;53.99;100876.38;5040232;28;20119;-63
2022/12/25 10:59:27;;;;;;;10.43;2.10;;;;;;;15.95;53.36;100876.22;5057368;28;20560;-65
2022/12/25 11:01:54;;;;;;;6.40;1.70;;;;;;;15.96;53.35;100867.09;5023686;28;20024;-64
2022/12/25 11:04:28;;;;;;;4.60;1.60;;;;;;;15.95;53.07;100866.25;5040681;28;20404;-65
2022/12/25 11:06:56;;;;;;;2.58;1.58;;;;;;;15.97;53.51;100864.22;5052414;28;20028;-65
2022/12/25 11:09:21;;;;;;;6.47;1.88;;;;;;;16.01;53.27;100848.56;5056991;28;20038;-64
2022/12/25 11:11:47;;;;;;;3.58;2.17;;;;;;;16.00;53.95;100852.25;5039959;28;20028;-63
2022/12/25 11:14:18;;;;;;;20.17;3.47;;;;;;;16.02;53.62;100850.25;5040835;28;20025;-64
2022/12/25 11:16:43;;;;;;;5.80;2.05;;;;;;;16.04;54.61;100850.94;5056874;28;20574;-64
2022/12/25 11:19:29;;;;;;;3.83;2.20;;;;;;;16.06;53.11;100840.78;5056580;28;20037;-64
2022/12/25 11:21:57;;;;;;;4.40;1.92;;;;;;;16.09;54.20;100845.88;5056444;28;20047;-64
2022/12/25 11:24:30;;;;;;;1.70;1.30;;;;;;;16.09;53.33;100833.22;5023553;28;20500;-64
2022/12/25 11:26:56;;;;;;;;;;;;;;;16.15;53.01;100832.56;5057187;28;20377;-63
2022/12/25 11:29:22;;;;;;;2.70;1.60;;;;;;;16.17;54.11;100824.28;5056890;28;19912;-63
2022/12/25 11:31:49;;;;;;;2.13;1.10;;;;;;;16.15;53.02;100818.19;5074209;28;20168;-63
2022/12/25 11:34:34;;;;;;;4.18;1.50;;;;;;;16.15;53.98;100815.50;5056633;28;20037;-64
2022/12/25 11:37:01;;;;;;;2.30;1.35;;;;;;;16.15;54.37;100815.50;5039817;28;20033;-64
2022/12/25 11:39:29;;;;;;;2.97;1.23;;;;;;;16.16;54.23;100814.50;5039440;28;20496;-64
2022/12/25 11:42:15;;;;;;;3.67;1.55;;;;;;;16.18;54.23;100812.47;5056248;28;20071;-62
2022/12/25 11:44:58;;;;;;;4.03;1.17;;;;;;;16.17;54.76;100808.06;5039607;28;20041;-63
2022/12/25 11:47:30;;;;;;;2.53;1.60;;;;;;;16.18;53.72;100812.47;5074816;28;20550;-63
2022/12/25 11:50:14;;;;;;;2.63;1.65;;;;;;;16.20;54.10;100815.84;5074099;28;20033;-64
2022/12/25 11:52:42;;;;;;;1.83;1.15;;;;;;;16.18;54.02;100804.34;5073855;28;20028;-65
2022/12/25 11:55:19;;;;;;;2.40;1.40;;;;;;;16.20;54.35;100805.88;5056239;28;20040;-64
2022/12/25 11:57:48;;;;;;;2.47;1.15;;;;;;;16.19;54.46;100809.56;5055986;28;20516;-65
2022/12/25 12:00:15;;;;;;;2.22;1.58;;;;;;;16.20;54.71;100796.91;5055689;28;20126;-64
2022/12/25 12:02:46;;;;;;;4.10;1.67;;;;;;;16.19;53.82;100800.66;5055937;28;20028;-63
2022/12/25 12:05:20;;;;;;;4.10;2.10;;;;;;;16.22;53.23;100805.69;5056158;28;20060;-63
2022/12/25 12:07:52;;;;;;;4.53;2.15;;;;;;;16.24;53.46;100798.28;5055868;28;20028;-63
2022/12/25 12:10:27;;;;;;;4.47;2.53;;;;;;;16.27;54.08;100787.97;5055463;28;20041;-62
2022/12/25 12:13:19;;;;;;;2.78;1.75;;;;;;;16.29;53.69;100790.50;5055714;28;20078;-64
2022/12/25 12:15:46;;;;;;;3.28;2.13;;;;;;;16.30;54.07;100784.09;5026239;28;20039;-64
2022/12/25 12:18:22;;;;;;;2.97;2.10;;;;;;;16.34;53.33;100788.16;5055566;28;20038;-65
2022/12/25 12:21:06;;;;;;;7.80;2.20;;;;;;;16.36;54.76;100786.13;5055501;28;20025;-62
2022/12/25 12:23:36;;;;;;;4.90;2.20;;;;;;;16.38;54.52;100773.31;5039345;28;20119;-63
2022/12/25 12:26:02;;;;;;;3.08;1.60;;;;;;;16.41;53.23;100767.56;5038747;28;20093;-64
2022/12/25 12:28:35;;;;;;;4.63;2.38;;;;;;;16.44;54.81;100772.63;5038418;28;20465;-61
2022/12/25 12:31:03;;;;;;;3.05;2.13;;;;;;;16.47;54.58;100766.03;5055254;28;20033;-62
2022/12/25 12:33:35;;;;;;;2.67;1.83;;;;;;;16.46;53.74;100759.78;5038510;28;20039;-63
2022/12/25 12:36:02;;;;;;;7.47;1.75;;;;;;;16.49;53.51;100766.72;5073278;28;20090;-63
2022/12/25 12:38:28;;;;;;;4.47;2.08;;;;;;;16.49;54.35;100764.00;5055382;28;20028;-62
2022/12/25 12:41:00;;;;;;;3.65;1.73;;;;;;;16.52;53.46;100772.63;5055007;28;20036;-62
2022/12/25 12:43:37;;;;;;;2.55;1.52;;;;;;;16.51;53.74;100770.94;5072833;28;20051;-61
2022/12/25 12:46:28;;;;;;;2.58;1.35;;;;;;;16.51;54.79;100770.09;5073236;28;20040;-62
2022/12/25 12:49:09;;;;;;;2.75;1.90;;;;;;;16.52;53.62;100769.06;5026591;28;20043;-62
2022/12/25 12:51:36;;;;;;;4.05;2.20;;;;;;;16.55;54.87;100764.22;5038304;28;20554;-62
2022/12/25 12:54:22;;;;;;;2.35;1.58;;;;;;;16.56;54.14;100760.47;5055655;28;20116;-62
2022/12/25 12:57:40;;;;;;;4.20;1.90;;;;;;;16.57;54.16;100756.78;5055048;28;20025;-63
2022/12/25 13:00:12;;;;;;;2.53;1.48;;;;;;;16.54;53.75;100750.84;5052358;28;20051;-64
2022/12/25 13:03:10;;;;;;;2.17;1.67;;;;;;;16.53;54.51;100749.13;5072653;28;20084;-64
2022/12/25 13:06:21;;;;;;;3.47;1.45;;;;;;;16.52;54.54;100742.88;5011489;28;20496;-62
2022/12/25 13:09:19;;;;;;;2.85;1.98;;;;;;;16.50;54.66;100744.88;5041400;28;20044;-62
2022/12/25 13:11:45;;;;;;;3.95;2.63;;;;;;;16.50;54.45;100739.47;5054382;28;20036;-62
2022/12/25 13:14:13;;;;;;;3.15;2.03;;;;;;;16.51;54.26;100734.94;5038721;28;20028;-63
2022/12/25 13:16:41;;;;;;;2.28;1.80;;;;;;;16.55;54.36;100720.09;5054677;28;20035;-63
2022/12/25 13:19:33;;;;;;;4.07;1.88;;;;;;;16.55;54.93;100715.53;5037089;28;20489;-63